Time;durP1;ratioP1;P1;durP2;ratioP2;P2;SDS_P1;SDS_P2;PMS_P1;PMS_P2;Temp;Humidity;BMP_temperature;BMP_pressure;BME280_temperature;BME280_humidity;BME280_pressure;Samples;Min_cycle;Max_cycle;Signal;HPM_P1;HPM_P2
2023/03/12 00:00:57;;;;;;;12.93;7.05;;;-0.20;99.90;;;;;;2085071;28;20049;-73
2023/03/12 00:01:58;;;;;;;11.52;6.45;;;-0.30;99.90;;;;;;2087127;28;20059;-73
2023/03/12 00:02:59;;;;;;;10.73;6.32;;;-0.20;99.90;;;;;;2080267;28;20032;-73
2023/03/12 00:04:02;;;;;;;10.60;6.03;;;-0.30;99.90;;;;;;2080386;28;20045;-74
2023/03/12 00:05:03;;;;;;;10.55;6.25;;;-0.30;99.90;;;;;;2085574;28;20028;-72
2023/03/12 00:06:05;;;;;;;11.75;6.30;;;-0.30;99.90;;;;;;2081878;28;20033;-74
2023/03/12 00:07:07;;;;;;;9.93;6.10;;;-0.30;99.90;;;;;;2081900;28;20037;-73
2023/03/12 00:08:09;;;;;;;12.05;6.38;;;-0.30;99.90;;;;;;2083054;28;20021;-74
2023/03/12 00:09:09;;;;;;;10.40;6.00;;;-0.30;99.90;;;;;;2082980;28;20041;-73
2023/03/12 00:10:10;;;;;;;10.95;6.22;;;-0.30;99.90;;;;;;2078687;28;20032;-73
2023/03/12 00:11:14;;;;;;;11.18;6.10;;;-0.30;99.90;;;;;;2086844;28;20098;-73
2023/03/12 00:12:14;;;;;;;10.07;6.15;;;-0.30;99.90;;;;;;2079394;28;20063;-72
2023/03/12 00:13:15;;;;;;;10.13;6.50;;;-0.20;99.90;;;;;;2071537;28;20116;-73
2023/03/12 00:14:16;;;;;;;10.82;6.57;;;-0.30;99.90;;;;;;2069924;28;20125;-73
2023/03/12 00:15:16;;;;;;;11.70;6.82;;;-0.20;99.90;;;;;;2081193;28;20036;-73
2023/03/12 00:16:17;;;;;;;9.98;6.10;;;-0.30;99.90;;;;;;2081856;28;20376;-73
2023/03/12 00:17:18;;;;;;;9.93;5.97;;;-0.30;99.90;;;;;;2085792;28;20033;-75
2023/03/12 00:18:18;;;;;;;8.93;5.85;;;-0.30;99.90;;;;;;2094176;28;20108;-76
2023/03/12 00:19:19;;;;;;;10.95;5.95;;;-0.30;99.90;;;;;;2089571;28;20036;-76
2023/03/12 00:20:20;;;;;;;12.60;6.30;;;-0.30;99.90;;;;;;2081116;28;20031;-75
2023/03/12 00:21:22;;;;;;;10.32;6.45;;;-0.30;99.90;;;;;;2082347;28;20036;-75
2023/03/12 00:22:24;;;;;;;9.75;6.35;;;-0.30;99.90;;;;;;2090139;28;20551;-75
2023/03/12 00:23:25;;;;;;;11.10;6.47;;;-0.30;99.90;;;;;;2087773;28;20028;-75
2023/03/12 00:24:25;;;;;;;9.32;6.10;;;-0.30;99.90;;;;;;2085583;28;20483;-75
2023/03/12 00:25:26;;;;;;;8.93;5.55;;;-0.30;99.90;;;;;;2089873;28;20028;-76
2023/03/12 00:26:26;;;;;;;9.80;5.55;;;-0.30;99.90;;;;;;2081910;28;20048;-76
2023/03/12 00:27:27;;;;;;;11.75;5.95;;;-0.20;99.90;;;;;;2077218;28;20025;-74
2023/03/12 00:28:28;;;;;;;10.18;6.32;;;-0.20;99.90;;;;;;2092771;28;20040;-74
2023/03/12 00:29:29;;;;;;;10.27;5.85;;;-0.20;99.90;;;;;;2087289;28;20029;-75
2023/03/12 00:30:29;;;;;;;10.23;5.60;;;-0.20;99.90;;;;;;2086254;28;20151;-76
2023/03/12 00:31:31;;;;;;;9.85;5.88;;;-0.30;99.90;;;;;;2087614;28;20029;-76
2023/03/12 00:32:33;;;;;;;10.82;6.20;;;-0.30;99.90;;;;;;2088879;28;20035;-76
2023/03/12 00:33:33;;;;;;;10.50;5.80;;;-0.20;99.90;;;;;;2085695;28;20028;-76
2023/03/12 00:34:34;;;;;;;12.77;5.57;;;-0.30;99.90;;;;;;2082395;28;20233;-76
2023/03/12 00:35:36;;;;;;;9.73;5.30;;;-0.30;99.90;;;;;;2081851;28;20028;-76
2023/03/12 00:36:36;;;;;;;9.02;5.65;;;-0.20;99.90;;;;;;2073475;28;20026;-75
2023/03/12 00:37:38;;;;;;;10.88;5.72;;;-0.20;99.90;;;;;;2082452;28;20090;-77
2023/03/12 00:38:38;;;;;;;11.00;5.80;;;-0.20;99.90;;;;;;2091738;28;20364;-76
2023/03/12 00:39:39;;;;;;;11.57;5.60;;;-0.20;99.90;;;;;;2088138;28;20059;-75
2023/03/12 00:40:39;;;;;;;8.32;5.50;;;-0.20;99.90;;;;;;2086818;28;20041;-76
2023/03/12 00:41:40;;;;;;;9.20;5.80;;;-0.20;99.90;;;;;;2082674;28;20025;-75
2023/03/12 00:42:41;;;;;;;9.68;5.75;;;-0.20;99.90;;;;;;2077201;28;20037;-74
2023/03/12 00:43:41;;;;;;;10.32;5.55;;;-0.20;99.90;;;;;;2077323;28;20036;-74
2023/03/12 00:44:43;;;;;;;8.23;5.60;;;-0.20;99.90;;;;;;2085457;28;20056;-74
2023/03/12 00:45:44;;;;;;;9.65;5.90;;;-0.20;99.90;;;;;;2085094;28;20063;-75
2023/03/12 00:46:44;;;;;;;9.45;5.18;;;-0.20;99.90;;;;;;2087840;28;20028;-75
2023/03/12 00:47:45;;;;;;;9.02;5.70;;;-0.20;99.90;;;;;;2085016;28;20547;-75
2023/03/12 00:48:46;;;;;;;13.23;5.80;;;-0.20;99.90;;;;;;2087795;28;20476;-75
2023/03/12 00:49:46;;;;;;;9.43;5.47;;;-0.20;99.90;;;;;;2086781;28;20037;-76
2023/03/12 00:50:47;;;;;;;8.50;5.22;;;-0.20;99.90;;;;;;2088559;28;20025;-75
2023/03/12 00:51:48;;;;;;;10.05;5.50;;;-0.20;99.90;;;;;;2082470;28;20029;-75
2023/03/12 00:52:48;;;;;;;10.63;5.78;;;-0.20;99.90;;;;;;2081684;28;20508;-74
2023/03/12 00:53:49;;;;;;;9.68;5.40;;;-0.20;99.90;;;;;;2081811;28;20029;-75
2023/03/12 00:54:50;;;;;;;11.00;5.85;;;-0.30;99.90;;;;;;2081855;28;20554;-75
2023/03/12 00:55:50;;;;;;;10.55;5.30;;;-0.30;99.90;;;;;;2079171;28;20063;-75
2023/03/12 00:56:51;;;;;;;9.70;6.03;;;-0.30;99.90;;;;;;2081448;28;20032;-74
2023/03/12 00:57:51;;;;;;;10.38;5.78;;;-0.30;99.90;;;;;;2083285;28;20048;-75
2023/03/12 00:58:52;;;;;;;12.30;5.68;;;-0.30;99.90;;;;;;2081626;28;20456;-75
2023/03/12 00:59:53;;;;;;;10.13;5.53;;;-0.30;99.90;;;;;;2083878;28;20480;-75
2023/03/12 01:00:53;;;;;;;10.20;5.25;;;-0.30;99.90;;;;;;2089693;28;20029;-75
2023/03/12 01:01:54;;;;;;;9.27;5.20;;;-0.40;99.90;;;;;;2081688;28;20440;-75
2023/03/12 01:02:55;;;;;;;10.32;5.50;;;-0.40;99.90;;;;;;2081460;28;20028;-74
2023/03/12 01:03:57;;;;;;;8.15;5.22;;;-0.40;99.90;;;;;;2081118;28;20036;-75
2023/03/12 01:04:58;;;;;;;9.68;5.40;;;-0.40;99.90;;;;;;2078552;28;20014;-75
2023/03/12 01:05:59;;;;;;;10.13;5.20;;;-0.40;99.90;;;;;;2078193;28;20056;-76
2023/03/12 01:07:00;;;;;;;9.05;5.53;;;-0.40;99.90;;;;;;2078566;28;20024;-75
2023/03/12 01:08:00;;;;;;;12.65;5.65;;;-0.40;99.90;;;;;;2079658;28;20044;-75
2023/03/12 01:09:04;;;;;;;10.63;5.20;;;-0.40;99.90;;;;;;2075530;28;20204;-75
2023/03/12 01:10:06;;;;;;;8.60;5.50;;;-0.30;99.90;;;;;;2073683;28;20030;-75
2023/03/12 01:11:16;;;;;;;10.43;5.80;;;-0.30;99.90;;;;;;2077065;28;20163;-75
2023/03/12 01:12:16;;;;;;;10.65;5.18;;;-0.30;99.90;;;;;;2084385;28;20032;-75
2023/03/12 01:13:17;;;;;;;9.80;5.45;;;-0.30;99.90;;;;;;2085190;28;20028;-75
2023/03/12 01:14:18;;;;;;;9.82;5.20;;;-0.40;99.90;;;;;;2087839;28;20036;-76
2023/03/12 01:15:18;;;;;;;9.80;5.45;;;-0.30;99.90;;;;;;2086287;28;20395;-76
2023/03/12 01:16:19;;;;;;;8.90;5.20;;;-0.40;99.90;;;;;;2086703;28;20115;-74
2023/03/12 01:17:20;;;;;;;11.00;5.10;;;-0.40;99.90;;;;;;2086966;28;20569;-74
2023/03/12 01:18:20;;;;;;;10.50;5.32;;;-0.40;99.90;;;;;;2086913;28;20036;-74
2023/03/12 01:19:21;;;;;;;15.15;5.40;;;-0.40;99.90;;;;;;2086168;28;20020;-75
2023/03/12 01:20:23;;;;;;;10.45;5.72;;;-0.40;99.90;;;;;;2087549;28;20166;-76
2023/03/12 01:21:24;;;;;;;8.88;5.05;;;-0.40;99.90;;;;;;2089895;28;20028;-75
2023/03/12 01:22:25;;;;;;;9.32;5.15;;;-0.40;99.90;;;;;;2089128;28;20028;-76
2023/03/12 01:23:26;;;;;;;8.32;4.68;;;-0.40;99.90;;;;;;2085763;28;20021;-75
2023/03/12 01:24:26;;;;;;;8.70;5.18;;;-0.40;99.90;;;;;;2092307;28;20309;-75
2023/03/12 01:25:27;;;;;;;10.43;5.63;;;-0.40;99.90;;;;;;2088533;28;20028;-75
2023/03/12 01:26:27;;;;;;;8.27;5.32;;;-0.40;99.90;;;;;;2086663;28;20114;-74
2023/03/12 01:27:29;;;;;;;8.18;5.03;;;-0.40;99.90;;;;;;2086598;28;20471;-75
2023/03/12 01:28:30;;;;;;;10.00;5.05;;;-0.40;99.90;;;;;;2087612;28;20107;-76
2023/03/12 01:29:30;;;;;;;10.98;5.22;;;-0.40;99.90;;;;;;2091143;28;20463;-75
2023/03/12 01:30:32;;;;;;;7.70;5.53;;;-0.40;99.90;;;;;;2081824;28;20032;-75
2023/03/12 01:31:33;;;;;;;8.70;5.15;;;-0.40;99.90;;;;;;2086374;28;20119;-75
2023/03/12 01:32:33;;;;;;;10.02;5.07;;;-0.50;99.90;;;;;;2081610;28;20027;-75
2023/03/12 01:33:34;;;;;;;8.02;5.10;;;-0.50;99.90;;;;;;2083474;28;20021;-75
2023/03/12 01:34:34;;;;;;;8.02;5.05;;;-0.50;99.90;;;;;;2086527;28;20503;-75
2023/03/12 01:35:38;;;;;;;8.30;5.35;;;-0.40;99.90;;;;;;2078034;28;20037;-75
2023/03/12 01:36:38;;;;;;;10.13;5.22;;;-0.50;99.90;;;;;;2085701;28;20044;-75
2023/03/12 01:37:39;;;;;;;11.52;5.30;;;-0.40;99.90;;;;;;2080245;28;20075;-75
2023/03/12 01:38:40;;;;;;;10.65;5.25;;;-0.40;99.90;;;;;;2091584;28;20050;-75
2023/03/12 01:39:41;;;;;;;8.23;4.80;;;-0.40;99.90;;;;;;2085044;28;20029;-76
2023/03/12 01:40:42;;;;;;;10.82;5.38;;;-0.40;99.90;;;;;;2085109;28;20120;-75
2023/03/12 01:41:43;;;;;;;8.95;4.82;;;-0.40;99.90;;;;;;2087189;28;20124;-74
2023/03/12 01:42:54;;;;;;;7.85;5.18;;;-0.40;99.90;;;;;;2086583;28;20028;-75
2023/03/12 01:43:55;;;;;;;9.25;5.20;;;-0.40;99.90;;;;;;2088998;28;20028;-74
2023/03/12 01:45:01;;;;;;;8.45;4.95;;;-0.40;99.90;;;;;;2081794;28;20714;-74
2023/03/12 01:46:22;;;;;;;9.40;4.90;;;-0.40;99.90;;;;;;2075188;28;20029;-75
2023/03/12 01:47:26;;;;;;;10.30;5.18;;;-0.40;99.90;;;;;;2082637;28;20032;-73
2023/03/12 01:48:30;;;;;;;8.93;4.72;;;-0.40;99.90;;;;;;2084193;28;20114;-76
2023/03/12 01:49:33;;;;;;;9.15;5.05;;;-0.40;99.90;;;;;;2083058;28;20106;-76
2023/03/12 01:50:34;;;;;;;8.45;4.78;;;-0.40;99.90;;;;;;2073885;28;20103;-76
2023/03/12 01:51:46;;;;;;;9.43;4.78;;;-0.40;99.90;;;;;;2083269;28;20130;-74
2023/03/12 01:52:47;;;;;;;9.27;4.38;;;-0.40;99.90;;;;;;2082969;28;20029;-74
2023/03/12 01:53:53;;;;;;;9.98;4.82;;;-0.40;99.90;;;;;;2075005;28;20034;-74
2023/03/12 01:55:03;;;;;;;10.05;4.60;;;-0.40;99.90;;;;;;2083610;28;20185;-74
2023/03/12 01:56:06;;;;;;;9.60;4.65;;;-0.30;99.90;;;;;;2084571;28;20040;-76
2023/03/12 01:57:13;;;;;;;10.82;5.00;;;-0.30;99.90;;;;;;2080042;28;20380;-74
2023/03/12 01:58:14;;;;;;;10.95;4.85;;;-0.30;99.90;;;;;;2080910;28;20028;-75
2023/03/12 01:59:20;;;;;;;8.77;4.90;;;-0.30;99.90;;;;;;2074860;28;20026;-76
2023/03/12 02:00:26;;;;;;;8.88;4.97;;;-0.30;99.90;;;;;;2084015;28;20462;-76
2023/03/12 02:01:29;;;;;;;8.10;4.60;;;-0.30;99.90;;;;;;2084128;28;20029;-75
2023/03/12 02:02:31;;;;;;;9.43;5.00;;;-0.30;99.90;;;;;;2085518;28;20040;-75
2023/03/12 02:03:35;;;;;;;12.02;4.43;;;-0.30;99.90;;;;;;2081637;28;20064;-75
2023/03/12 02:04:37;;;;;;;9.07;4.63;;;-0.30;99.90;;;;;;2080307;28;20111;-74
2023/03/12 02:05:47;;;;;;;10.68;4.28;;;-0.30;99.90;;;;;;2087196;28;20056;-74
2023/03/12 02:07:10;;;;;;;9.02;4.40;;;-0.30;99.90;;;;;;2072963;28;20045;-74
2023/03/12 02:08:14;;;;;;;8.63;4.72;;;-0.30;99.90;;;;;;2073049;28;20072;-73
2023/03/12 02:09:19;;;;;;;8.90;4.68;;;-0.30;99.90;;;;;;2089246;28;20044;-73
2023/03/12 02:10:21;;;;;;;8.73;4.40;;;-0.30;99.90;;;;;;2083300;28;20053;-73
2023/03/12 02:11:21;;;;;;;11.25;4.80;;;-0.30;99.90;;;;;;2091389;28;20072;-74
2023/03/12 02:12:22;;;;;;;7.75;4.35;;;-0.30;99.90;;;;;;2088197;28;20036;-74
2023/03/12 02:13:22;;;;;;;9.88;4.25;;;-0.30;99.90;;;;;;2074142;28;20030;-74
2023/03/12 02:14:23;;;;;;;8.40;4.30;;;-0.30;99.90;;;;;;2087353;28;20079;-74
2023/03/12 02:15:24;;;;;;;7.90;4.30;;;-0.40;99.90;;;;;;2074816;28;20025;-74
2023/03/12 02:16:25;;;;;;;8.13;4.32;;;-0.40;99.90;;;;;;2082916;28;20037;-74
2023/03/12 02:17:26;;;;;;;8.25;4.60;;;-0.40;99.90;;;;;;2085236;28;20092;-74
2023/03/12 02:18:27;;;;;;;8.20;4.43;;;-0.40;99.90;;;;;;2091201;28;20532;-74
2023/03/12 02:19:30;;;;;;;8.70;4.40;;;-0.40;99.90;;;;;;2089868;28;20204;-74
2023/03/12 02:20:46;;;;;;;7.45;4.13;;;-0.40;99.90;;;;;;2080383;28;20144;-74
2023/03/12 02:21:47;;;;;;;7.97;4.07;;;-0.40;99.90;;;;;;2074721;28;20121;-75
2023/03/12 02:23:17;;;;;;;6.75;4.20;;;-0.40;99.90;;;;;;2087569;28;20217;-75
2023/03/12 02:24:39;;;;;;;6.67;4.00;;;-0.50;99.90;;;;;;2093835;28;20546;-74
2023/03/12 02:25:46;;;;;;;8.73;4.05;;;-0.50;99.90;;;;;;2084908;28;20801;-75
2023/03/12 02:26:48;;;;;;;7.13;4.18;;;-0.50;99.90;;;;;;2083528;28;20065;-75
2023/03/12 02:27:49;;;;;;;5.85;3.78;;;-0.50;99.90;;;;;;2091278;28;20024;-74
2023/03/12 02:28:53;;;;;;;9.57;4.53;;;-0.50;99.90;;;;;;2092959;28;20116;-75
2023/03/12 02:29:53;;;;;;;9.82;4.70;;;-0.50;99.90;;;;;;2077005;28;20026;-76
2023/03/12 02:31:01;;;;;;;8.63;4.53;;;-0.50;99.90;;;;;;2079000;28;20052;-76
2023/03/12 02:32:03;;;;;;;10.95;4.43;;;-0.50;99.90;;;;;;2073811;28;20789;-74
2023/03/12 02:33:06;;;;;;;8.00;4.22;;;-0.50;99.90;;;;;;2082938;28;20220;-75
2023/03/12 02:34:08;;;;;;;6.25;3.95;;;-0.50;99.90;;;;;;2082619;28;20119;-75
2023/03/12 02:35:10;;;;;;;7.82;4.00;;;-0.50;99.90;;;;;;2074886;28;20056;-74
2023/03/12 02:36:11;;;;;;;7.13;4.10;;;-0.50;99.90;;;;;;2093002;28;20042;-76
2023/03/12 02:37:13;;;;;;;6.90;3.90;;;-0.50;99.90;;;;;;2086727;28;20115;-75
2023/03/12 02:38:34;;;;;;;6.95;3.95;;;-0.50;99.90;;;;;;2091182;28;20480;-76
2023/03/12 02:39:36;;;;;;;7.10;3.88;;;-0.50;99.90;;;;;;2089766;28;20081;-75
2023/03/12 02:40:44;;;;;;;6.43;3.95;;;-0.50;99.90;;;;;;2088564;28;20346;-75
2023/03/12 02:41:49;;;;;;;8.43;3.92;;;-0.50;99.90;;;;;;2077336;28;20029;-74
2023/03/12 02:42:50;;;;;;;6.10;3.78;;;-0.50;99.90;;;;;;2083317;28;20072;-75
2023/03/12 02:44:11;;;;;;;7.95;4.00;;;-0.50;99.90;;;;;;2091821;28;20029;-75
2023/03/12 02:45:13;;;;;;;6.88;3.92;;;-0.50;99.90;;;;;;2090904;28;20601;-75
2023/03/12 02:46:14;;;;;;;9.00;4.10;;;-0.50;99.90;;;;;;2082724;28;20056;-75
2023/03/12 02:47:15;;;;;;;8.90;4.28;;;-0.50;99.90;;;;;;2081414;28;20467;-76
2023/03/12 02:48:15;;;;;;;5.53;3.60;;;-0.40;99.90;;;;;;2090924;28;20165;-74
2023/03/12 02:49:18;;;;;;;5.43;3.72;;;-0.40;99.90;;;;;;2092877;28;20845;-75
2023/03/12 02:50:19;;;;;;;6.65;3.75;;;-0.40;99.90;;;;;;2091040;28;20055;-75
2023/03/12 02:51:19;;;;;;;6.88;4.18;;;-0.40;99.90;;;;;;2090922;28;20458;-75
2023/03/12 02:52:20;;;;;;;6.97;3.80;;;-0.40;99.90;;;;;;2090815;28;20012;-74
2023/03/12 02:53:21;;;;;;;6.60;3.90;;;-0.40;99.90;;;;;;2084856;28;20487;-75
2023/03/12 02:54:22;;;;;;;6.82;3.78;;;-0.40;99.90;;;;;;2078376;28;20083;-73
2023/03/12 02:55:23;;;;;;;7.72;3.88;;;-0.40;99.90;;;;;;2082216;28;20036;-74
2023/03/12 02:56:26;;;;;;;7.22;3.97;;;-0.40;99.90;;;;;;2090917;28;20409;-75
2023/03/12 02:57:27;;;;;;;6.75;3.78;;;-0.40;99.90;;;;;;2088932;28;20616;-75
2023/03/12 02:58:28;;;;;;;6.70;4.00;;;-0.50;99.90;;;;;;2075013;28;20037;-76
2023/03/12 02:59:28;;;;;;;7.88;3.75;;;-0.50;99.90;;;;;;2080752;28;20483;-75
2023/03/12 03:00:31;;;;;;;8.88;4.00;;;-0.50;99.90;;;;;;2075015;28;20025;-75
2023/03/12 03:01:35;;;;;;;7.55;3.75;;;-0.50;99.90;;;;;;2093949;28;20427;-75
2023/03/12 03:02:35;;;;;;;7.03;3.63;;;-0.50;99.90;;;;;;2084120;28;20029;-76
2023/03/12 03:03:36;;;;;;;7.50;3.67;;;-0.50;99.90;;;;;;2077425;28;20124;-75
2023/03/12 03:04:37;;;;;;;7.50;3.85;;;-0.50;99.90;;;;;;2088591;28;20522;-76
2023/03/12 03:05:38;;;;;;;5.63;3.53;;;-0.50;99.90;;;;;;2074012;28;20092;-75
2023/03/12 03:06:41;;;;;;;6.35;4.03;;;-0.60;99.90;;;;;;2061471;28;20034;-75
2023/03/12 03:07:42;;;;;;;6.28;3.70;;;-0.50;99.90;;;;;;2068213;28;20033;-73
2023/03/12 03:08:43;;;;;;;6.50;3.53;;;-0.50;99.90;;;;;;2070002;28;20555;-74
2023/03/12 03:09:43;;;;;;;6.00;3.50;;;-0.60;99.90;;;;;;2085829;28;20540;-75
2023/03/12 03:10:44;;;;;;;7.82;3.80;;;-0.60;99.90;;;;;;2090905;28;20522;-75
2023/03/12 03:11:44;;;;;;;7.25;3.85;;;-0.60;99.90;;;;;;2082499;28;20047;-75
2023/03/12 03:12:45;;;;;;;5.85;3.50;;;-0.60;99.90;;;;;;2082400;28;20100;-73
2023/03/12 03:13:46;;;;;;;7.28;3.58;;;-0.60;99.90;;;;;;2084518;28;20496;-74
2023/03/12 03:14:47;;;;;;;6.28;3.88;;;-0.60;99.90;;;;;;2078314;28;20551;-74
2023/03/12 03:15:48;;;;;;;7.90;4.20;;;-0.60;99.90;;;;;;2086873;28;20088;-74
2023/03/12 03:16:49;;;;;;;8.40;3.67;;;-0.60;99.90;;;;;;2077697;28;20575;-74
2023/03/12 03:17:50;;;;;;;5.53;3.50;;;-0.60;99.90;;;;;;2082374;28;20032;-75
2023/03/12 03:18:50;;;;;;;6.07;3.47;;;-0.60;99.90;;;;;;2092609;28;20066;-75
2023/03/12 03:19:52;;;;;;;6.57;3.67;;;-0.60;99.90;;;;;;2090785;28;20028;-75
2023/03/12 03:21:01;;;;;;;4.65;3.20;;;-0.70;99.90;;;;;;2082426;28;20609;-74
2023/03/12 03:22:03;;;;;;;;;;;-0.70;99.90;;;;;;2077265;28;20033;-74
2023/03/12 03:23:03;;;;;;;5.68;3.40;;;-0.70;99.90;;;;;;2086591;28;19912;-75
2023/03/12 03:24:04;;;;;;;6.57;3.60;;;-0.70;99.90;;;;;;2079062;28;20035;-74
2023/03/12 03:25:07;;;;;;;8.52;3.38;;;-0.70;99.90;;;;;;2084538;28;20035;-75
2023/03/12 03:26:08;;;;;;;6.90;3.55;;;-0.70;99.90;;;;;;2080157;28;20108;-74
2023/03/12 03:27:09;;;;;;;7.45;3.83;;;-0.80;99.90;;;;;;2081901;28;20059;-74
2023/03/12 03:28:09;;;;;;;9.70;4.45;;;-0.80;99.90;;;;;;2082379;28;20021;-74
2023/03/12 03:29:10;;;;;;;9.25;4.57;;;-0.80;99.90;;;;;;2091086;28;20081;-75
2023/03/12 03:30:11;;;;;;;8.52;4.45;;;-0.80;99.90;;;;;;2077628;28;20120;-75
2023/03/12 03:31:16;;;;;;;11.30;5.13;;;-0.90;99.90;;;;;;2066437;28;20123;-74
2023/03/12 03:32:17;;;;;;;10.98;4.93;;;-0.80;99.90;;;;;;2083032;28;20023;-74
2023/03/12 03:33:17;;;;;;;11.00;4.60;;;-0.80;99.90;;;;;;2090619;28;20039;-75
2023/03/12 03:34:18;;;;;;;8.90;4.63;;;-0.90;99.90;;;;;;2074029;28;20112;-74
2023/03/12 03:35:20;;;;;;;9.10;4.45;;;-0.90;99.90;;;;;;2067971;28;20527;-75
2023/03/12 03:36:22;;;;;;;7.93;4.63;;;-0.90;99.90;;;;;;2072556;28;20025;-74
2023/03/12 03:37:33;;;;;;;8.15;4.70;;;-0.90;99.90;;;;;;2083661;28;20041;-76
2023/03/12 03:38:34;;;;;;;7.60;4.70;;;-0.90;99.90;;;;;;2080332;28;20531;-75
2023/03/12 03:39:35;;;;;;;7.97;4.72;;;-0.90;99.90;;;;;;2086461;28;21115;-75
2023/03/12 03:40:36;;;;;;;8.55;5.18;;;-0.90;99.90;;;;;;2082360;28;20030;-75
2023/03/12 03:41:37;;;;;;;11.32;5.95;;;-0.90;99.90;;;;;;2082446;28;20021;-72
2023/03/12 03:42:38;;;;;;;10.38;5.75;;;-1.00;99.90;;;;;;2087921;28;20055;-74
2023/03/12 03:43:38;;;;;;;9.93;6.00;;;-1.00;99.90;;;;;;2078111;28;20066;-75
2023/03/12 03:44:40;;;;;;;10.70;6.05;;;-1.00;99.90;;;;;;2074164;28;20025;-75
2023/03/12 03:45:43;;;;;;;13.55;6.25;;;-1.00;99.90;;;;;;2077532;28;20113;-76
2023/03/12 03:46:45;;;;;;;10.90;5.43;;;-1.10;99.90;;;;;;2079913;28;20516;-75
2023/03/12 03:47:46;;;;;;;9.35;5.80;;;-1.10;99.90;;;;;;2079762;28;20025;-75
2023/03/12 03:48:47;;;;;;;9.93;5.60;;;-1.10;99.90;;;;;;2089904;28;20024;-75
2023/03/12 03:49:48;;;;;;;7.95;5.50;;;-1.10;99.90;;;;;;2090570;28;20029;-74
2023/03/12 03:50:49;;;;;;;11.73;5.40;;;-1.10;99.90;;;;;;2087572;28;20040;-75
2023/03/12 03:51:53;;;;;;;8.75;5.05;;;-1.20;99.90;;;;;;2090298;28;20032;-75
2023/03/12 03:53:01;;;;;;;9.70;5.50;;;-1.20;99.90;;;;;;2087711;28;20043;-75
2023/03/12 03:54:01;;;;;;;10.32;5.60;;;-1.20;99.90;;;;;;2086858;28;20024;-75
2023/03/12 03:55:03;;;;;;;10.00;5.20;;;-1.20;99.90;;;;;;2089671;28;20040;-75
2023/03/12 03:56:15;;;;;;;9.57;5.50;;;-1.30;99.90;;;;;;2079666;28;20029;-74
2023/03/12 03:57:20;;;;;;;9.02;5.57;;;-1.30;99.90;;;;;;2082481;28;20032;-75
2023/03/12 03:58:21;;;;;;;10.35;5.63;;;-1.30;99.90;;;;;;2086721;28;20087;-75
2023/03/12 03:59:21;;;;;;;11.10;6.28;;;-1.30;99.90;;;;;;2086928;28;20020;-75
2023/03/12 04:00:22;;;;;;;11.15;6.28;;;-1.30;99.90;;;;;;2094913;28;20028;-75
2023/03/12 04:01:25;;;;;;;12.20;6.07;;;-1.30;99.90;;;;;;2082509;28;20158;-74
2023/03/12 04:02:27;;;;;;;10.30;6.00;;;-1.30;99.90;;;;;;2082145;28;20097;-75
2023/03/12 04:03:28;;;;;;;9.80;5.93;;;-1.40;99.90;;;;;;2077783;28;20099;-76
2023/03/12 04:04:30;;;;;;;9.63;5.90;;;-1.40;99.90;;;;;;2073912;28;20548;-76
2023/03/12 04:05:31;;;;;;;11.57;6.47;;;-1.40;99.90;;;;;;2070828;28;20447;-75
2023/03/12 04:06:32;;;;;;;10.38;6.60;;;-1.40;99.90;;;;;;2076122;28;20029;-75
2023/03/12 04:07:33;;;;;;;10.30;6.38;;;-1.40;99.90;;;;;;2077093;28;20108;-76
2023/03/12 04:08:36;;;;;;;11.02;6.55;;;-1.40;99.90;;;;;;2074162;28;20034;-76
2023/03/12 04:09:37;;;;;;;12.23;6.38;;;-1.40;99.90;;;;;;2077079;28;20535;-75
2023/03/12 04:10:38;;;;;;;14.68;6.55;;;-1.40;99.90;;;;;;2084461;28;20108;-76
2023/03/12 04:11:39;;;;;;;9.50;6.35;;;-1.40;99.90;;;;;;2061239;28;20029;-75
2023/03/12 04:12:42;;;;;;;9.63;5.97;;;-1.50;99.90;;;;;;2070893;28;20033;-75
2023/03/12 04:13:43;;;;;;;10.23;6.10;;;-1.50;99.90;;;;;;2072146;28;20022;-75
2023/03/12 04:14:45;;;;;;;9.00;5.90;;;-1.50;99.90;;;;;;2082603;28;20021;-75
2023/03/12 04:15:51;;;;;;;10.30;6.20;;;-1.40;99.90;;;;;;2086948;28;20036;-75
2023/03/12 04:16:52;;;;;;;10.15;6.22;;;-1.50;99.90;;;;;;2078953;28;20052;-75
2023/03/12 04:17:53;;;;;;;10.82;6.03;;;-1.50;99.90;;;;;;2085331;28;20117;-76
2023/03/12 04:18:55;;;;;;;9.35;6.07;;;-1.50;99.90;;;;;;2086350;28;20083;-77
2023/03/12 04:19:56;;;;;;;8.73;5.60;;;-1.50;99.90;;;;;;2078530;28;20074;-76
2023/03/12 04:20:58;;;;;;;10.27;5.97;;;-1.50;99.90;;;;;;2074652;28;20079;-77
2023/03/12 04:21:59;;;;;;;9.90;5.63;;;-1.50;99.90;;;;;;2066704;28;20144;-76
2023/03/12 04:23:00;;;;;;;9.27;5.50;;;-1.50;99.90;;;;;;2067845;28;20036;-76
2023/03/12 04:24:01;;;;;;;9.52;5.20;;;-1.50;99.90;;;;;;2072690;28;20142;-76
2023/03/12 04:25:06;;;;;;;9.75;5.30;;;-1.50;99.90;;;;;;2070356;28;20033;-76
2023/03/12 04:26:07;;;;;;;10.13;5.20;;;-1.40;99.90;;;;;;2081343;28;20035;-75
2023/03/12 04:27:09;;;;;;;9.23;5.22;;;-1.40;99.90;;;;;;2078549;28;20107;-76
2023/03/12 04:28:10;;;;;;;7.82;4.72;;;-1.40;99.90;;;;;;2090405;28;20024;-76
2023/03/12 04:29:12;;;;;;;8.25;4.70;;;-1.40;99.90;;;;;;2091066;28;20056;-75
2023/03/12 04:30:14;;;;;;;8.52;4.60;;;-1.30;99.90;;;;;;2082510;28;20052;-75
2023/03/12 04:31:15;;;;;;;7.78;4.28;;;-1.30;99.90;;;;;;2072063;28;20022;-75
2023/03/12 04:32:22;;;;;;;7.75;4.15;;;-1.30;99.90;;;;;;2073593;28;20053;-75
2023/03/12 04:33:23;;;;;;;6.10;4.38;;;-1.30;99.90;;;;;;2078695;28;20030;-75
2023/03/12 04:34:23;;;;;;;7.65;4.57;;;-1.30;99.90;;;;;;2078106;28;20036;-75
2023/03/12 04:35:26;;;;;;;8.75;4.40;;;-1.30;99.90;;;;;;2072738;28;20021;-75
2023/03/12 04:36:27;;;;;;;6.20;4.10;;;-1.20;99.90;;;;;;2072325;28;20063;-74
2023/03/12 04:37:32;;;;;;;6.47;3.95;;;-1.20;99.90;;;;;;2084899;28;20029;-75
2023/03/12 04:38:34;;;;;;;7.15;4.45;;;-1.20;99.90;;;;;;2084638;28;20029;-74
2023/03/12 04:39:34;;;;;;;8.43;3.92;;;-1.20;99.90;;;;;;2090689;28;20103;-75
2023/03/12 04:40:35;;;;;;;6.60;3.42;;;-1.10;99.90;;;;;;2090731;28;20043;-75
2023/03/12 04:41:36;;;;;;;6.78;3.17;;;-1.00;99.90;;;;;;2082277;28;20291;-76
2023/03/12 04:42:42;;;;;;;6.63;3.33;;;-0.90;99.90;;;;;;2082458;28;20459;-76
2023/03/12 04:43:43;;;;;;;8.02;3.10;;;-0.80;99.90;;;;;;2090332;28;20036;-75
2023/03/12 04:44:44;;;;;;;7.20;3.38;;;-0.70;99.90;;;;;;2081283;28;20041;-75
2023/03/12 04:45:45;;;;;;;7.65;3.50;;;-0.70;99.90;;;;;;2087210;28;20427;-76
2023/03/12 04:46:45;;;;;;;5.88;3.10;;;-0.70;99.90;;;;;;2089696;28;20033;-76
2023/03/12 04:47:49;;;;;;;6.30;3.28;;;-0.60;99.90;;;;;;2084958;28;20032;-75
2023/03/12 04:48:51;;;;;;;5.38;2.92;;;-0.60;99.90;;;;;;2084386;28;20032;-76
2023/03/12 04:49:51;;;;;;;6.18;3.13;;;-0.60;99.90;;;;;;2082340;28;20025;-76
2023/03/12 04:50:52;;;;;;;6.07;3.22;;;-0.60;99.90;;;;;;2073715;28;20039;-76
2023/03/12 04:51:54;;;;;;;7.88;4.10;;;-0.70;99.90;;;;;;2083113;28;20029;-76
2023/03/12 04:52:55;;;;;;;7.32;4.35;;;-0.70;99.90;;;;;;2089551;28;20517;-76
2023/03/12 04:53:55;;;;;;;7.75;3.70;;;-0.70;99.90;;;;;;2079620;28;20052;-75
2023/03/12 04:54:58;;;;;;;8.57;4.00;;;-0.80;99.90;;;;;;2082595;28;20104;-75
2023/03/12 04:55:59;;;;;;;6.80;3.95;;;-0.80;99.90;;;;;;2089469;28;20498;-75
2023/03/12 04:57:00;;;;;;;6.40;3.88;;;-0.80;99.90;;;;;;2081953;28;20037;-75
2023/03/12 04:58:01;;;;;;;6.55;3.83;;;-0.90;99.90;;;;;;2082005;28;20033;-74
2023/03/12 04:59:02;;;;;;;9.93;4.53;;;-0.90;99.90;;;;;;2075852;28;20033;-76
2023/03/12 05:00:09;;;;;;;7.88;4.53;;;-0.90;99.90;;;;;;2071139;28;20014;-82
2023/03/12 05:01:31;;;;;;;7.38;4.00;;;-0.90;99.90;;;;;;2076941;28;20033;-83
2023/03/12 05:02:32;;;;;;;5.70;4.00;;;-0.90;99.90;;;;;;2081141;28;20033;-77
2023/03/12 05:03:32;;;;;;;6.68;4.03;;;-1.00;99.90;;;;;;2079822;28;20102;-84
2023/03/12 05:04:33;;;;;;;6.30;4.22;;;-1.00;99.90;;;;;;2086728;28;20028;-86
2023/03/12 05:05:34;;;;;;;7.25;4.40;;;-1.00;99.90;;;;;;2082862;28;20949;-78
2023/03/12 05:06:35;;;;;;;6.95;4.20;;;-1.10;99.90;;;;;;2078664;28;20087;-80
2023/03/12 05:07:36;;;;;;;6.38;3.90;;;-1.10;99.90;;;;;;2072085;28;20029;-79
2023/03/12 05:08:37;;;;;;;6.72;4.32;;;-1.10;99.90;;;;;;2071389;28;20140;-78
2023/03/12 05:09:38;;;;;;;7.43;3.92;;;-1.10;99.90;;;;;;2089567;28;20033;-80
2023/03/12 05:10:44;;;;;;;8.90;4.30;;;-1.10;99.90;;;;;;2086569;28;20110;-80
2023/03/12 05:11:46;;;;;;;9.10;4.40;;;-1.10;99.90;;;;;;2077786;28;20106;-80
2023/03/12 05:12:50;;;;;;;7.72;4.38;;;-1.10;99.90;;;;;;2078011;28;20507;-80
2023/03/12 05:13:52;;;;;;;9.65;4.72;;;-1.00;99.90;;;;;;2079137;28;20147;-77
2023/03/12 05:14:53;;;;;;;9.27;4.65;;;-1.00;99.90;;;;;;2079789;28;20033;-79
2023/03/12 05:15:54;;;;;;;7.38;3.78;;;-1.00;99.90;;;;;;2076998;28;20435;-79
2023/03/12 05:16:55;;;;;;;9.98;4.07;;;-1.00;99.90;;;;;;2087196;28;20120;-79
2023/03/12 05:17:56;;;;;;;7.28;3.85;;;-1.00;99.90;;;;;;2077812;28;20100;-78
2023/03/12 05:18:56;;;;;;;6.70;3.95;;;-0.90;99.90;;;;;;2079238;28;20038;-82
2023/03/12 05:19:58;;;;;;;9.23;3.80;;;-0.90;99.90;;;;;;2078802;28;20110;-80
2023/03/12 05:21:14;;;;;;;7.50;3.75;;;-0.90;99.90;;;;;;2076299;28;20083;-78
2023/03/12 05:22:15;;;;;;;6.68;3.58;;;-0.90;99.90;;;;;;2092403;28;20293;-80
2023/03/12 05:23:15;;;;;;;7.15;3.78;;;-0.90;99.90;;;;;;2089636;28;20177;-80